Time;durP1;ratioP1;P1;durP2;ratioP2;P2;SDS_P1;SDS_P2;PMS_P1;PMS_P2;Temp;Humidity;BMP_temperature;BMP_pressure;BME280_temperature;BME280_humidity;BME280_pressure;Samples;Min_cycle;Max_cycle;Signal;HPM_P1;HPM_P2
2023/06/07 00:02:20;;;;;;;3.85;3.55;;;23.50;99.90;;;;;;4917836;29;20127;-60
2023/06/07 00:04:45;;;;;;;3.97;3.00;;;23.40;99.90;;;;;;4918185;29;20049;-60
2023/06/07 00:07:12;;;;;;;3.20;3.00;;;23.40;99.90;;;;;;4917644;29;20036;-61
2023/06/07 00:09:37;;;;;;;3.90;3.42;;;23.40;99.90;;;;;;4917541;29;20552;-61
2023/06/07 00:12:04;;;;;;;4.80;3.72;;;23.40;99.90;;;;;;4917408;29;20039;-60
2023/06/07 00:14:31;;;;;;;4.07;3.78;;;23.50;99.90;;;;;;4917352;29;20035;-60
2023/06/07 00:16:58;;;;;;;4.05;3.65;;;23.40;99.90;;;;;;4917724;29;20031;-60
2023/06/07 00:19:25;;;;;;;4.47;3.83;;;23.30;99.90;;;;;;4929969;29;20135;-60
2023/06/07 00:21:54;;;;;;;4.82;4.43;;;23.40;99.90;;;;;;4936887;29;20032;-60
2023/06/07 00:24:20;;;;;;;4.45;4.05;;;23.40;99.90;;;;;;4936554;29;20630;-60
2023/06/07 00:26:46;;;;;;;4.25;3.85;;;23.30;99.90;;;;;;4936417;29;20115;-60
2023/06/07 00:29:13;;;;;;;5.50;4.70;;;23.30;99.90;;;;;;4933396;29;20024;-61
2023/06/07 00:31:39;;;;;;;5.40;4.90;;;23.30;99.90;;;;;;4935459;29;20027;-61
2023/06/07 00:34:05;;;;;;;5.13;4.65;;;23.30;99.90;;;;;;4936425;29;20035;-60
2023/06/07 00:36:33;;;;;;;5.05;4.55;;;23.20;99.90;;;;;;4936264;29;20055;-60
2023/06/07 00:38:59;;;;;;;5.25;4.85;;;23.20;99.90;;;;;;4936116;29;20036;-60
2023/06/07 00:41:25;;;;;;;5.57;5.13;;;23.20;99.90;;;;;;4936241;29;20034;-60
2023/06/07 00:43:50;;;;;;;7.07;6.38;;;23.20;99.90;;;;;;4936243;29;20020;-60
2023/06/07 00:46:21;;;;;;;6.10;5.53;;;23.10;99.90;;;;;;4934844;29;20042;-60
2023/06/07 00:48:49;;;;;;;7.07;6.38;;;23.10;1.00;;;;;;4929016;29;20034;-61
2023/06/07 00:51:15;;;;;;;7.47;6.43;;;23.10;1.00;;;;;;4936409;29;20123;-60
2023/06/07 00:53:42;;;;;;;7.38;6.68;;;23.00;1.00;;;;;;4936034;29;20102;-61
2023/06/07 00:56:09;;;;;;;8.25;7.60;;;23.00;1.00;;;;;;4935077;29;20055;-60
2023/06/07 00:58:35;;;;;;;9.23;7.53;;;23.00;1.00;;;;;;4934669;29;20035;-60
2023/06/07 01:01:25;;;;;;;9.38;8.32;;;23.00;1.00;;;;;;4932988;29;20370;-60
2023/06/07 01:03:51;;;;;;;9.05;8.10;;;23.00;1.00;;;;;;4935927;29;20492;-60
2023/06/07 01:06:16;;;;;;;8.48;7.78;;;23.00;1.00;;;;;;4935189;29;20036;-60
2023/06/07 01:08:43;;;;;;;9.52;8.55;;;23.10;1.00;;;;;;4934964;29;20485;-60
2023/06/07 01:11:10;;;;;;;8.55;7.75;;;23.10;1.00;;;;;;4917945;29;20474;-60
2023/06/07 01:13:38;;;;;;;8.48;7.68;;;23.10;1.00;;;;;;4934780;29;20024;-60
2023/06/07 01:16:05;;;;;;;10.60;7.95;;;23.10;1.00;;;;;;4934957;29;20050;-60
2023/06/07 01:18:30;;;;;;;9.15;8.35;;;23.10;1.00;;;;;;4915347;29;20048;-60
2023/06/07 01:20:57;;;;;;;8.82;7.53;;;23.10;1.00;;;;;;4926385;29;20027;-60
2023/06/07 01:23:33;;;;;;;8.60;7.80;;;23.10;1.00;;;;;;4934443;29;20028;-60
2023/06/07 01:26:00;;;;;;;8.50;7.53;;;23.00;1.00;;;;;;4935466;29;20102;-60
2023/06/07 01:28:28;;;;;;;8.80;8.05;;;22.90;1.00;;;;;;4918718;29;20032;-60
2023/06/07 01:34:29;;;;;;;8.30;7.50;;;22.80;1.00;;;;;;4937153;29;20395;-60
2023/06/07 01:36:55;;;;;;;7.80;7.00;;;22.90;1.00;;;;;;4935034;29;20039;-60
2023/06/07 01:39:23;;;;;;;8.02;6.95;;;22.80;1.00;;;;;;4928340;29;20023;-60
2023/06/07 01:41:51;;;;;;;7.65;6.93;;;22.80;1.00;;;;;;4935582;29;20028;-60
2023/06/07 01:44:18;;;;;;;7.47;6.40;;;22.80;1.00;;;;;;4935268;29;20020;-60
2023/06/07 01:46:44;;;;;;;7.93;6.70;;;22.80;1.00;;;;;;4926949;29;20524;-60
2023/06/07 01:49:13;;;;;;;8.60;7.75;;;22.80;1.00;;;;;;4933120;29;20052;-60
2023/06/07 01:51:38;;;;;;;8.05;7.22;;;22.80;1.00;;;;;;4936821;29;20033;-60
2023/06/07 01:54:05;;;;;;;9.15;7.43;;;22.80;1.00;;;;;;4935342;29;20103;-60
2023/06/07 01:56:43;;;;;;;7.60;6.90;;;22.80;1.00;;;;;;4937958;29;20073;-60
2023/06/07 01:59:37;;;;;;;8.18;6.95;;;22.80;1.00;;;;;;4939190;29;20030;-60
2023/06/07 02:02:19;;;;;;;8.18;7.38;;;22.80;1.00;;;;;;4919070;29;20035;-60
2023/06/07 02:04:50;;;;;;;7.72;6.93;;;22.80;1.00;;;;;;4939145;29;20354;-60
2023/06/07 02:07:24;;;;;;;8.43;7.63;;;22.80;1.00;;;;;;4939349;29;20063;-60
2023/06/07 02:09:50;;;;;;;8.10;7.25;;;22.80;1.00;;;;;;4937685;29;20035;-60
2023/06/07 02:12:18;;;;;;;8.68;7.78;;;22.80;1.00;;;;;;4938900;29;20031;-60
2023/06/07 02:14:46;;;;;;;8.30;7.35;;;22.80;1.00;;;;;;4939258;29;20035;-60
2023/06/07 02:17:12;;;;;;;9.07;7.93;;;22.80;1.00;;;;;;4921611;29;20042;-60
2023/06/07 02:19:38;;;;;;;8.55;7.65;;;22.80;1.00;;;;;;4938587;29;20150;-60
2023/06/07 02:22:05;;;;;;;9.02;8.13;;;22.80;1.00;;;;;;4939108;29;20493;-60
2023/06/07 02:24:31;;;;;;;8.77;7.82;;;22.90;1.00;;;;;;4938990;29;20069;-60
2023/06/07 02:26:57;;;;;;;9.35;7.55;;;22.70;1.00;;;;;;4937127;29;20023;-60
2023/06/07 02:29:23;;;;;;;9.85;8.02;;;22.60;1.00;;;;;;4938796;29;20042;-60
2023/06/07 02:31:49;;;;;;;8.77;7.38;;;22.50;1.00;;;;;;4937213;29;20042;-60
2023/06/07 02:34:15;;;;;;;10.88;7.60;;;22.50;1.00;;;;;;4938214;29;20024;-60
2023/06/07 02:36:41;;;;;;;9.48;7.40;;;22.50;1.00;;;;;;4934873;29;20038;-60
2023/06/07 02:39:10;;;;;;;9.30;7.00;;;22.40;1.00;;;;;;4933108;29;20032;-60
2023/06/07 02:41:36;;;;;;;7.75;6.95;;;21.60;99.90;;;;;;4935567;29;20023;-61
2023/06/07 02:44:01;;;;;;;7.65;6.85;;;21.30;99.90;;;;;;4936398;29;20019;-60
2023/06/07 02:46:27;;;;;;;7.82;7.15;;;21.40;1.00;;;;;;4938189;29;20108;-60
2023/06/07 02:48:53;;;;;;;8.18;7.45;;;21.60;1.00;;;;;;4938122;29;20030;-60
2023/06/07 02:51:18;;;;;;;9.85;8.10;;;21.70;1.00;;;;;;4937026;29;20028;-60
2023/06/07 02:53:45;;;;;;;8.57;7.78;;;21.70;1.00;;;;;;4938213;29;20126;-60
2023/06/07 02:56:11;;;;;;;10.32;8.85;;;21.60;1.00;;;;;;4937562;29;20043;-60
2023/06/07 02:58:40;;;;;;;10.18;8.85;;;20.80;1.00;;;;;;4937933;29;20034;-60
2023/06/07 03:01:07;;;;;;;10.55;8.95;;;20.70;1.00;;;;;;4938078;29;20047;-60
2023/06/07 03:03:35;;;;;;;15.27;9.40;;;20.90;1.00;;;;;;4937292;29;20028;-61
2023/06/07 03:06:02;;;;;;;18.60;11.50;;;20.80;1.00;;;;;;4931221;29;20028;-60
2023/06/07 03:08:27;;;;;;;23.50;13.88;;;20.70;1.00;;;;;;4933500;29;20038;-60
2023/06/07 03:10:53;;;;;;;18.80;11.65;;;20.60;1.00;;;;;;4934005;29;20114;-60
2023/06/07 03:13:18;;;;;;;20.75;14.00;;;20.40;1.00;;;;;;4937551;29;20103;-61
2023/06/07 03:15:47;;;;;;;20.05;12.40;;;20.30;27.10;;;;;;4937491;29;20358;-61
2023/06/07 03:18:15;;;;;;;17.50;12.45;;;20.20;19.40;;;;;;4937172;29;20059;-61
2023/06/07 03:20:42;;;;;;;15.50;13.90;;;20.10;1.00;;;;;;4937710;29;20051;-60
2023/06/07 03:23:07;;;;;;;17.42;13.52;;;20.00;1.00;;;;;;4918863;29;20039;-60
2023/06/07 03:25:35;;;;;;;16.17;14.38;;;19.90;1.00;;;;;;4937391;29;20028;-61
2023/06/07 03:28:00;;;;;;;18.75;15.20;;;19.80;1.00;;;;;;4937713;29;20034;-60
2023/06/07 03:30:26;;;;;;;17.92;13.38;;;19.90;1.00;;;;;;4937370;29;20036;-60
2023/06/07 03:32:52;;;;;;;20.58;13.75;;;20.00;1.00;;;;;;4933701;29;20020;-60
2023/06/07 03:35:18;;;;;;;19.55;13.07;;;19.90;1.00;;;;;;4922269;29;20042;-61
2023/06/07 03:37:43;;;;;;;13.45;11.57;;;20.00;1.00;;;;;;4935686;29;20381;-61
2023/06/07 03:40:10;;;;;;;13.40;12.05;;;19.90;1.00;;;;;;4927687;29;20016;-61
2023/06/07 03:42:36;;;;;;;15.60;12.18;;;19.90;1.00;;;;;;4937347;29;20027;-61
2023/06/07 03:45:02;;;;;;;16.58;13.40;;;19.90;1.00;;;;;;4937485;29;20028;-61
2023/06/07 03:47:28;;;;;;;14.35;12.85;;;19.90;1.00;;;;;;4937378;29;20063;-61
2023/06/07 03:49:53;;;;;;;14.90;12.65;;;19.90;1.00;;;;;;4936973;29;20083;-61
2023/06/07 03:52:19;;;;;;;13.10;11.75;;;19.90;1.00;;;;;;4937120;29;20032;-61
2023/06/07 03:54:45;;;;;;;15.65;12.23;;;19.90;1.00;;;;;;4941701;29;20114;-60
2023/06/07 03:57:11;;;;;;;11.15;10.05;;;19.90;1.00;;;;;;4937182;29;20040;-61
2023/06/07 03:59:36;;;;;;;13.48;10.73;;;19.90;1.00;;;;;;4937093;29;20039;-61
2023/06/07 04:02:03;;;;;;;12.25;10.95;;;19.90;1.00;;;;;;4937057;29;20031;-61
2023/06/07 04:04:32;;;;;;;12.18;10.82;;;19.80;1.00;;;;;;4936949;29;20055;-61
2023/06/07 04:07:00;;;;;;;13.68;11.30;;;19.90;1.00;;;;;;4937044;29;20040;-61
2023/06/07 04:09:26;;;;;;;12.13;10.82;;;19.90;1.00;;;;;;4936110;29;20036;-61
2023/06/07 04:11:52;;;;;;;9.00;7.85;;;19.90;1.00;;;;;;4935911;29;20090;-61
2023/06/07 04:14:18;;;;;;;10.20;9.18;;;20.10;1.00;;;;;;4936903;29;20397;-61
2023/06/07 04:16:43;;;;;;;11.80;10.63;;;20.20;1.00;;;;;;4936825;29;20039;-61
2023/06/07 04:19:09;;;;;;;10.30;8.48;;;20.30;1.00;;;;;;4936161;29;20134;-61
2023/06/07 04:21:36;;;;;;;9.23;8.30;;;20.20;1.00;;;;;;4936745;29;20512;-61
2023/06/07 04:24:04;;;;;;;10.23;8.13;;;20.30;1.00;;;;;;4936575;29;20511;-61
2023/06/07 04:26:31;;;;;;;10.45;8.82;;;20.40;1.00;;;;;;4936643;29;20481;-61
2023/06/07 04:28:57;;;;;;;11.80;10.48;;;20.30;1.00;;;;;;4925538;29;20028;-61
2023/06/07 04:31:29;;;;;;;14.00;10.68;;;19.80;99.90;;;;;;4936739;29;20115;-60
2023/06/07 04:34:01;;;;;;;17.02;12.52;;;19.80;99.90;;;;;;4923166;29;20095;-61
2023/06/07 04:36:28;;;;;;;12.60;10.57;;;19.70;99.90;;;;;;4934548;29;20042;-61
2023/06/07 04:38:55;;;;;;;12.10;10.38;;;19.60;99.90;;;;;;4936480;29;20027;-61
2023/06/07 04:41:30;;;;;;;14.30;11.38;;;19.50;99.90;;;;;;4934099;29;20599;-61
2023/06/07 04:43:56;;;;;;;;;;;19.70;99.90;;;;;;4929993;29;20024;-61
2023/06/07 04:46:22;;;;;;;12.55;9.73;;;19.80;99.90;;;;;;4934047;29;19906;-61
2023/06/07 04:48:47;;;;;;;11.50;9.25;;;19.90;99.90;;;;;;4927508;29;20040;-61
2023/06/07 04:51:13;;;;;;;12.27;9.82;;;20.00;99.90;;;;;;4931852;29;20031;-61
2023/06/07 04:53:41;;;;;;;12.07;10.27;;;20.20;99.90;;;;;;4936089;29;20046;-61
2023/06/07 04:56:08;;;;;;;13.88;11.60;;;19.80;99.90;;;;;;4936127;29;20500;-61
2023/06/07 04:58:33;;;;;;;13.32;9.75;;;20.10;99.90;;;;;;4935868;29;20027;-60
2023/06/07 05:01:00;;;;;;;12.82;11.55;;;19.90;99.90;;;;;;4919126;29;20051;-61
2023/06/07 05:03:26;;;;;;;15.93;13.65;;;20.00;99.90;;;;;;4935790;29;20024;-60
2023/06/07 05:05:52;;;;;;;14.80;12.80;;;20.20;99.90;;;;;;4926048;29;20024;-61
2023/06/07 05:08:19;;;;;;;15.18;13.57;;;20.20;99.90;;;;;;4931340;29;20050;-61
2023/06/07 05:10:45;;;;;;;14.82;13.32;;;20.10;99.90;;;;;;4935391;29;20020;-61
2023/06/07 05:13:11;;;;;;;16.25;13.80;;;19.90;99.90;;;;;;4933137;29;20048;-61
2023/06/07 05:15:36;;;;;;;16.65;13.52;;;19.70;99.90;;;;;;4933989;29;20051;-61
2023/06/07 05:18:02;;;;;;;17.75;13.68;;;19.80;99.90;;;;;;4935158;29;20044;-61
2023/06/07 05:20:28;;;;;;;22.00;16.40;;;19.90;99.90;;;;;;4935530;29;20047;-61
2023/06/07 05:22:54;;;;;;;17.50;15.05;;;19.80;99.90;;;;;;4933581;29;20027;-61
2023/06/07 05:25:20;;;;;;;18.95;15.23;;;20.00;99.90;;;;;;4929572;29;20026;-61
2023/06/07 05:27:49;;;;;;;16.85;14.20;;;20.10;99.90;;;;;;4935500;29;20107;-61
2023/06/07 05:30:16;;;;;;;15.63;13.80;;;19.90;99.90;;;;;;4936178;29;20062;-60
2023/06/07 05:32:42;;;;;;;15.27;13.65;;;20.00;99.90;;;;;;4939146;29;20038;-61
2023/06/07 05:35:08;;;;;;;15.85;14.18;;;19.70;99.90;;;;;;4934250;29;20024;-61
2023/06/07 05:37:37;;;;;;;17.15;14.25;;;19.90;99.90;;;;;;4936110;29;20083;-61
2023/06/07 05:40:07;;;;;;;17.58;14.85;;;19.90;99.90;;;;;;4933723;29;20431;-60
2023/06/07 05:42:38;;;;;;;16.88;12.25;;;20.00;99.90;;;;;;4935418;29;20062;-61
2023/06/07 05:45:56;;;;;;;13.43;12.02;;;20.00;99.90;;;;;;4939295;29;20533;-61
2023/06/07 05:48:21;;;;;;;15.57;11.52;;;19.90;99.90;;;;;;4938910;29;20042;-61
2023/06/07 05:50:47;;;;;;;13.90;11.57;;;20.00;99.90;;;;;;4939356;29;20031;-61
2023/06/07 05:53:13;;;;;;;11.75;10.13;;;20.00;99.90;;;;;;4937928;29;20031;-61
2023/06/07 05:55:38;;;;;;;13.02;10.38;;;19.90;99.90;;;;;;4939161;29;20374;-61
2023/06/07 05:58:04;;;;;;;13.63;10.57;;;19.80;99.90;;;;;;4939103;29;20507;-60
2023/06/07 06:00:31;;;;;;;11.85;9.75;;;19.90;99.90;;;;;;4930319;29;20102;-61
2023/06/07 06:03:01;;;;;;;11.57;10.07;;;19.90;99.90;;;;;;4939013;29;20430;-61
2023/06/07 06:05:27;;;;;;;11.10;9.25;;;20.00;99.90;;;;;;4937592;29;20063;-61
2023/06/07 06:07:57;;;;;;;11.30;10.10;;;20.00;99.90;;;;;;4930892;29;20028;-61
2023/06/07 06:10:23;;;;;;;11.00;9.73;;;19.90;99.90;;;;;;4938003;29;20087;-61
2023/06/07 06:12:55;;;;;;;15.40;10.63;;;20.00;99.90;;;;;;4933729;29;20074;-61
2023/06/07 06:15:21;;;;;;;13.80;12.35;;;19.90;99.90;;;;;;4919570;29;20393;-61
2023/06/07 06:17:54;;;;;;;14.18;12.77;;;20.00;99.90;;;;;;4938699;29;20051;-61
2023/06/07 06:20:20;;;;;;;14.60;13.13;;;20.00;99.90;;;;;;4918557;29;20095;-61
2023/06/07 06:22:45;;;;;;;14.00;12.40;;;20.00;99.90;;;;;;4938701;29;20035;-61
2023/06/07 06:25:13;;;;;;;13.80;12.38;;;20.10;99.90;;;;;;4934352;29;20020;-61
2023/06/07 06:27:39;;;;;;;15.27;13.77;;;20.10;99.90;;;;;;4938862;29;20036;-61
2023/06/07 06:30:06;;;;;;;16.27;14.60;;;20.10;99.90;;;;;;4938556;29;20485;-61
2023/06/07 06:32:32;;;;;;;14.65;13.15;;;20.00;99.90;;;;;;4938560;29;20028;-61
2023/06/07 06:34:57;;;;;;;16.15;14.02;;;20.10;99.90;;;;;;4929872;29;20091;-61
2023/06/07 06:37:23;;;;;;;16.35;14.73;;;20.10;99.90;;;;;;4917656;29;20040;-61
2023/06/07 06:39:51;;;;;;;16.90;14.48;;;20.10;99.90;;;;;;4933077;29;20079;-61
2023/06/07 06:42:16;;;;;;;19.70;15.10;;;20.10;99.90;;;;;;4935581;29;20078;-61
2023/06/07 06:44:42;;;;;;;19.45;16.35;;;20.00;99.90;;;;;;4938406;29;20024;-61
2023/06/07 06:47:08;;;;;;;17.63;15.38;;;20.10;99.90;;;;;;4937984;29;20118;-61
2023/06/07 06:49:33;;;;;;;17.75;14.80;;;20.10;99.90;;;;;;4938243;29;20020;-61
2023/06/07 06:51:59;;;;;;;19.65;16.08;;;20.10;99.90;;;;;;4938058;29;20030;-61
2023/06/07 06:54:26;;;;;;;16.80;14.25;;;20.00;99.90;;;;;;4933015;29;20035;-61
2023/06/07 06:56:51;;;;;;;20.73;14.88;;;20.00;99.90;;;;;;4932233;29;20127;-61
2023/06/07 06:59:17;;;;;;;19.90;15.63;;;20.00;99.90;;;;;;4936213;29;20040;-61
2023/06/07 07:01:47;;;;;;;20.17;15.95;;;20.10;99.90;;;;;;4935840;29;20039;-61
2023/06/07 07:04:14;;;;;;;16.40;14.70;;;20.00;99.90;;;;;;4936020;29;20090;-61
2023/06/07 07:06:40;;;;;;;14.15;11.88;;;20.00;99.90;;;;;;4935734;29;20040;-61
2023/06/07 07:09:06;;;;;;;13.73;12.25;;;20.00;99.90;;;;;;4934950;29;20159;-61
2023/06/07 07:11:38;;;;;;;14.35;12.25;;;20.10;99.90;;;;;;4934974;29;20118;-61
2023/06/07 07:14:05;;;;;;;19.27;13.18;;;20.10;99.90;;;;;;4934980;29;20020;-60
2023/06/07 07:16:31;;;;;;;14.02;11.88;;;20.10;99.90;;;;;;4934748;29;20050;-60
2023/06/07 07:18:56;;;;;;;14.00;12.30;;;20.20;99.90;;;;;;4934294;29;20560;-60
2023/06/07 07:21:22;;;;;;;15.30;12.95;;;20.10;99.90;;;;;;4934886;29;20031;-61
2023/06/07 07:23:48;;;;;;;12.35;10.63;;;20.20;99.90;;;;;;4935010;29;20136;-60
2023/06/07 07:26:13;;;;;;;14.68;12.77;;;20.20;99.90;;;;;;4936255;29;20111;-61
2023/06/07 07:28:39;;;;;;;15.77;13.65;;;20.20;99.90;;;;;;4937185;29;20027;-61
2023/06/07 07:31:05;;;;;;;16.98;14.60;;;20.30;99.90;;;;;;4935797;29;20032;-60
2023/06/07 07:33:31;;;;;;;18.27;14.65;;;20.40;99.90;;;;;;4937526;29;20103;-60
2023/06/07 07:36:00;;;;;;;15.38;13.75;;;20.40;99.90;;;;;;4920411;29;20118;-60
2023/06/07 07:38:26;;;;;;;16.23;14.52;;;20.50;99.90;;;;;;4937637;29;20445;-60
2023/06/07 07:40:52;;;;;;;17.23;14.20;;;20.60;99.90;;;;;;4937709;29;20358;-60
2023/06/07 07:43:18;;;;;;;14.27;12.77;;;20.70;99.90;;;;;;4937326;29;20046;-60
2023/06/07 07:45:43;;;;;;;14.30;12.80;;;20.80;99.90;;;;;;4937280;29;20034;-60
2023/06/07 07:48:09;;;;;;;12.73;11.40;;;20.80;99.90;;;;;;4937363;29;20032;-61
2023/06/07 07:50:37;;;;;;;10.75;8.80;;;20.90;99.90;;;;;;4937499;29;20030;-60
2023/06/07 07:53:05;;;;;;;9.55;8.18;;;21.00;99.90;;;;;;4935537;29;20389;-60
2023/06/07 07:55:35;;;;;;;7.35;6.63;;;21.00;99.90;;;;;;4936011;29;20059;-61
2023/06/07 07:58:00;;;;;;;9.15;8.25;;;21.00;99.90;;;;;;4925597;29;20525;-60
2023/06/07 08:00:26;;;;;;;9.43;7.68;;;21.10;1.00;;;;;;4936012;29;20028;-61
2023/06/07 08:02:51;;;;;;;8.60;6.85;;;21.20;1.00;;;;;;4937316;29;20070;-61
2023/06/07 08:05:17;;;;;;;6.43;5.70;;;21.30;1.00;;;;;;4936963;29;20534;-60
2023/06/07 08:07:43;;;;;;;12.32;9.73;;;21.20;1.00;;;;;;4936949;29;20043;-60
2023/06/07 08:10:10;;;;;;;13.65;11.82;;;21.30;1.00;;;;;;4936824;29;20023;-61
2023/06/07 08:12:35;;;;;;;10.93;9.93;;;21.30;1.00;;;;;;4936818;29;20031;-60
2023/06/07 08:15:01;;;;;;;12.77;10.75;;;21.30;1.00;;;;;;4936849;29;20036;-61
2023/06/07 08:17:27;;;;;;;11.88;9.45;;;21.20;1.00;;;;;;4936574;29;20057;-61
2023/06/07 08:19:52;;;;;;;10.75;9.10;;;21.30;1.00;;;;;;4936142;29;20055;-61
2023/06/07 08:22:18;;;;;;;10.05;9.00;;;21.40;1.00;;;;;;4935949;29;20118;-60
2023/06/07 08:24:44;;;;;;;10.50;7.50;;;21.40;1.00;;;;;;4936318;29;20422;-61
2023/06/07 08:27:10;;;;;;;8.38;7.55;;;21.40;1.00;;;;;;4936347;29;20098;-61
2023/06/07 08:29:36;;;;;;;11.48;9.57;;;21.50;1.00;;;;;;4936529;29;20111;-61
2023/06/07 08:32:01;;;;;;;13.10;9.95;;;21.50;1.00;;;;;;4925512;29;20039;-60
2023/06/07 08:34:28;;;;;;;14.50;10.52;;;21.50;1.00;;;;;;4935451;29;20203;-60
2023/06/07 08:36:58;;;;;;;14.55;11.82;;;21.60;1.00;;;;;;4936252;29;20095;-61
2023/06/07 08:39:23;;;;;;;12.18;10.43;;;21.70;1.00;;;;;;4932509;29;20016;-61
2023/06/07 08:41:49;;;;;;;12.95;10.85;;;21.70;1.00;;;;;;4919352;29;20032;-61
2023/06/07 08:44:15;;;;;;;13.82;11.73;;;21.70;1.00;;;;;;4936250;29;20031;-61
2023/06/07 08:46:42;;;;;;;11.65;10.15;;;21.80;1.00;;;;;;4936139;29;20027;-60
2023/06/07 08:49:11;;;;;;;11.35;8.98;;;21.80;1.00;;;;;;4936105;29;20031;-61
2023/06/07 08:51:40;;;;;;;8.60;7.30;;;21.90;1.00;;;;;;4934480;29;20033;-61
2023/06/07 08:54:09;;;;;;;13.45;7.97;;;21.90;1.00;;;;;;4925084;29;20393;-61
2023/06/07 08:56:35;;;;;;;6.32;5.72;;;22.00;1.00;;;;;;4936089;29;20040;-60
2023/06/07 08:59:05;;;;;;;9.05;7.88;;;22.00;1.00;;;;;;4936359;29;20028;-62
2023/06/07 09:01:34;;;;;;;7.22;5.90;;;22.00;1.00;;;;;;4918951;29;20393;-60
2023/06/07 09:04:00;;;;;;;7.78;5.40;;;22.00;1.00;;;;;;4935658;29;20106;-62
2023/06/07 09:06:26;;;;;;;9.30;6.35;;;22.00;1.00;;;;;;4933497;29;20039;-61
2023/06/07 09:08:52;;;;;;;7.85;6.22;;;22.00;1.00;;;;;;4933320;29;20035;-61
2023/06/07 09:11:18;;;;;;;6.65;5.85;;;21.90;1.00;;;;;;4928554;29;20032;-61
2023/06/07 09:13:45;;;;;;;7.78;5.32;;;22.00;1.00;;;;;;4920827;29;20110;-61
2023/06/07 09:16:11;;;;;;;7.28;5.38;;;22.00;1.00;;;;;;4933126;29;20039;-61
2023/06/07 09:18:47;;;;;;;5.88;4.70;;;22.00;1.00;;;;;;4932569;29;20059;-61
2023/06/07 09:21:28;;;;;;;6.18;3.90;;;22.10;1.00;;;;;;4926765;29;20105;-61
2023/06/07 09:23:59;;;;;;;4.32;3.50;;;22.10;1.00;;;;;;4927557;29;20039;-60
2023/06/07 09:26:36;;;;;;;4.60;3.67;;;22.10;1.00;;;;;;4932333;29;20118;-61
2023/06/07 09:29:07;;;;;;;6.85;4.90;;;22.20;1.00;;;;;;4928108;29;20016;-61
2023/06/07 09:31:33;;;;;;;5.22;4.75;;;22.20;1.00;;;;;;4934089;29;20107;-61
2023/06/07 09:34:17;;;;;;;6.55;5.63;;;22.30;1.00;;;;;;4934285;29;20036;-61
2023/06/07 09:36:57;;;;;;;6.30;5.47;;;22.40;1.00;;;;;;4929740;29;20047;-61
2023/06/07 09:39:25;;;;;;;8.13;6.60;;;22.50;1.00;;;;;;4935388;29;20042;-61
2023/06/07 09:41:54;;;;;;;8.15;7.35;;;22.60;1.00;;;;;;4935722;29;20023;-61
2023/06/07 09:44:26;;;;;;;7.93;7.13;;;22.50;1.00;;;;;;4934989;29;20024;-61
2023/06/07 09:46:53;;;;;;;6.45;5.57;;;22.50;1.00;;;;;;4928843;29;20036;-60
2023/06/07 09:49:26;;;;;;;6.90;6.20;;;22.60;1.00;;;;;;4935413;29;20032;-61
2023/06/07 09:51:52;;;;;;;7.28;6.65;;;22.60;1.00;;;;;;4931857;29;20024;-61
2023/06/07 09:54:33;;;;;;;7.47;6.53;;;22.70;1.00;;;;;;4926198;29;20028;-61
2023/06/07 09:56:59;;;;;;;11.82;7.82;;;22.70;1.00;;;;;;4935524;29;20047;-61
2023/06/07 09:59:24;;;;;;;8.35;7.65;;;22.80;1.00;;;;;;4935800;29;20024;-61
2023/06/07 10:01:52;;;;;;;10.13;8.45;;;22.80;1.00;;;;;;4929792;29;20032;-61
2023/06/07 10:04:18;;;;;;;8.40;6.70;;;22.90;1.00;;;;;;4924508;29;20378;-61
2023/06/07 10:06:45;;;;;;;8.68;7.80;;;23.00;1.00;;;;;;4935616;29;20099;-61
2023/06/07 10:09:12;;;;;;;10.85;8.68;;;23.10;1.00;;;;;;4930933;29;20028;-67
2023/06/07 10:11:41;;;;;;;10.32;9.27;;;23.20;1.00;;;;;;4928466;29;20529;-63
2023/06/07 10:14:12;;;;;;;11.88;9.73;;;23.40;1.00;;;;;;4930061;29;20031;-62
2023/06/07 10:16:50;;;;;;;8.85;7.95;;;23.60;1.00;;;;;;4934587;29;20031;-62
2023/06/07 10:19:26;;;;;;;13.27;10.45;;;23.70;1.00;;;;;;4938630;29;20143;-62
2023/06/07 10:21:55;;;;;;;8.73;7.85;;;23.70;1.00;;;;;;4921846;29;20055;-62
2023/06/07 10:24:29;;;;;;;9.07;8.18;;;23.50;1.00;;;;;;4938671;29;20027;-62
2023/06/07 10:27:03;;;;;;;8.00;6.72;;;23.40;1.00;;;;;;4939069;29;20028;-62
2023/06/07 10:30:06;;;;;;;9.35;6.55;;;23.40;1.00;;;;;;4938657;29;20024;-62
2023/06/07 10:32:34;;;;;;;8.05;6.47;;;23.50;1.00;;;;;;4913612;29;20055;-62
2023/06/07 10:35:01;;;;;;;8.30;7.43;;;23.60;1.00;;;;;;4938859;29;20149;-62
2023/06/07 10:37:33;;;;;;;6.78;6.18;;;23.80;1.00;;;;;;4938447;29;20039;-62
2023/06/07 10:40:09;;;;;;;7.15;6.20;;;23.90;1.00;;;;;;4937351;29;20028;-62
2023/06/07 10:42:40;;;;;;;7.63;6.65;;;24.10;1.00;;;;;;4938571;29;20039;-62
2023/06/07 10:45:06;;;;;;;7.15;6.50;;;24.10;1.00;;;;;;4938530;29;20078;-62
2023/06/07 10:47:32;;;;;;;9.55;7.70;;;24.10;1.00;;;;;;4938279;29;20170;-62
2023/06/07 10:49:58;;;;;;;9.13;8.32;;;24.20;1.00;;;;;;4938342;29;20493;-62
2023/06/07 10:52:26;;;;;;;8.23;7.38;;;24.30;1.00;;;;;;4938236;29;20086;-62
2023/06/07 10:54:52;;;;;;;9.95;8.95;;;24.50;1.00;;;;;;4938399;29;20438;-62
2023/06/07 10:57:37;;;;;;;9.95;8.70;;;24.60;1.00;;;;;;4937110;29;20052;-62
2023/06/07 11:00:21;;;;;;;;;;;24.70;1.00;;;;;;4938550;29;20032;-62
2023/06/07 11:02:47;;;;;;;9.75;8.88;;;24.90;1.00;;;;;;4937697;29;19911;-62
2023/06/07 11:05:13;;;;;;;8.43;7.50;;;25.10;1.00;;;;;;4920950;29;20039;-62
2023/06/07 11:07:41;;;;;;;7.70;7.00;;;25.20;1.00;;;;;;4920960;29;20038;-62
2023/06/07 11:10:07;;;;;;;8.13;6.95;;;25.50;1.00;;;;;;4936706;29;20475;-62
2023/06/07 11:12:36;;;;;;;8.02;7.32;;;25.50;1.00;;;;;;4938361;29;20032;-62
2023/06/07 11:15:30;;;;;;;8.57;7.78;;;25.30;1.00;;;;;;4938171;29;20039;-62
2023/06/07 11:17:59;;;;;;;;;;;25.20;1.00;;;;;;4938336;29;20059;-62
2023/06/07 11:20:37;;;;;;;7.57;6.88;;;25.50;1.00;;;;;;4910618;29;19915;-62
2023/06/07 11:26:47;;;;;;;8.73;7.90;;;25.90;1.00;;;;;;4925128;29;20458;-62
2023/06/07 11:29:15;;;;;;;8.20;7.13;;;26.20;1.00;;;;;;4934376;29;20023;-62
2023/06/07 11:31:41;;;;;;;8.07;7.07;;;26.60;1.00;;;;;;4938074;29;20059;-62
2023/06/07 11:34:07;;;;;;;10.73;8.43;;;27.00;1.00;;;;;;4935763;29;20561;-62
2023/06/07 11:36:33;;;;;;;7.65;6.95;;;27.30;1.00;;;;;;4937477;29;20118;-62
2023/06/07 11:39:02;;;;;;;8.32;7.57;;;27.60;1.00;;;;;;4937485;29;20093;-62
2023/06/07 11:41:28;;;;;;;7.78;7.18;;;28.10;99.90;;;;;;4936180;29;20024;-62
2023/06/07 11:43:54;;;;;;;8.07;7.28;;;28.40;99.90;;;;;;4952178;29;20035;-62
2023/06/07 11:46:20;;;;;;;7.70;7.00;;;28.80;99.90;;;;;;4937348;29;20034;-62
2023/06/07 11:48:45;;;;;;;6.88;6.30;;;29.30;99.90;;;;;;4937143;29;20044;-62
2023/06/07 11:51:11;;;;;;;7.85;7.13;;;29.90;99.90;;;;;;4937416;29;20107;-62
2023/06/07 11:53:37;;;;;;;6.30;5.75;;;31.00;99.90;;;;;;4937135;29;20047;-62
2023/06/07 11:56:03;;;;;;;7.57;6.97;;;32.50;99.90;;;;;;4937428;29;20024;-62
2023/06/07 11:58:30;;;;;;;6.35;5.78;;;33.90;99.90;;;;;;4937409;29;20032;-62
2023/06/07 12:00:57;;;;;;;7.20;6.60;;;35.10;99.90;;;;;;4937079;29;20095;-62
2023/06/07 12:03:26;;;;;;;6.38;5.75;;;35.10;99.90;;;;;;4936976;29;20075;-62
2023/06/07 12:06:16;;;;;;;9.75;6.35;;;34.20;99.90;;;;;;4937243;29;20023;-63
2023/06/07 12:08:42;;;;;;;6.97;6.38;;;33.00;99.90;;;;;;4933892;29;20031;-62
2023/06/07 12:11:08;;;;;;;8.23;7.53;;;31.80;99.90;;;;;;4931748;29;20042;-62
2023/06/07 12:13:40;;;;;;;7.22;6.60;;;31.00;99.90;;;;;;4936851;29;20114;-62
2023/06/07 12:16:08;;;;;;;7.45;6.85;;;33.50;99.90;;;;;;4936799;29;20027;-62
2023/06/07 12:18:38;;;;;;;7.28;6.57;;;35.80;99.90;;;;;;4936550;29;20052;-62
2023/06/07 12:21:11;;;;;;;6.65;6.00;;;36.10;99.90;;;;;;4934714;29;20023;-62
2023/06/07 12:23:55;;;;;;;6.40;5.97;;;37.20;99.90;;;;;;4917730;29;20375;-61
2023/06/07 12:26:30;;;;;;;6.30;5.78;;;37.90;99.90;;;;;;4932435;29;20031;-61
2023/06/07 12:28:56;;;;;;;6.22;5.72;;;36.80;99.90;;;;;;4936923;29;20023;-61
2023/06/07 12:31:28;;;;;;;4.75;4.35;;;35.70;99.90;;;;;;4936611;29;20477;-62
2023/06/07 12:34:01;;;;;;;5.78;5.25;;;35.40;99.90;;;;;;4936609;29;20439;-61
2023/06/07 12:36:31;;;;;;;;;;;35.50;99.90;;;;;;4936709;29;20035;-61
2023/06/07 12:39:13;;;;;;;6.65;6.05;;;35.20;99.90;;;;;;4936390;29;19906;-62
2023/06/07 12:41:40;;;;;;;5.18;4.78;;;35.40;99.90;;;;;;4936692;29;20032;-62
2023/06/07 12:44:08;;;;;;;5.40;5.00;;;35.80;99.90;;;;;;4919200;29;20457;-62
2023/06/07 12:46:34;;;;;;;4.68;4.38;;;35.10;99.90;;;;;;4936477;29;20016;-62
2023/06/07 12:49:01;;;;;;;5.35;4.90;;;34.90;99.90;;;;;;4936451;29;20384;-62
2023/06/07 12:51:27;;;;;;;5.82;4.30;;;34.60;99.90;;;;;;4935799;29;20035;-61
2023/06/07 12:53:54;;;;;;;4.50;4.20;;;34.60;99.90;;;;;;4935656;29;20023;-61
2023/06/07 12:56:21;;;;;;;5.70;5.20;;;35.70;99.90;;;;;;4929797;29;20051;-62
2023/06/07 12:58:47;;;;;;;5.00;4.60;;;35.70;99.90;;;;;;4931080;29;20035;-62